Time;durP1;ratioP1;P1;durP2;ratioP2;P2;SDS_P1;SDS_P2;PMS_P1;PMS_P2;Temp;Humidity;BMP_temperature;BMP_pressure;BME280_temperature;BME280_humidity;BME280_pressure;Samples;Min_cycle;Max_cycle;Signal;HPM_P1;HPM_P2
2023/12/31 00:01:01;;;;;;;5.28;5.07;;;;;;;;;;6165855;28;20590;-96
2023/12/31 00:04:03;;;;;;;5.03;4.93;;;;;;;;;;6166256;28;20051;-96
2023/12/31 00:07:05;;;;;;;5.88;5.65;;;;;;;;;;6161595;28;20043;-96
2023/12/31 00:10:08;;;;;;;5.38;5.18;;;;;;;;;;6168601;28;20185;-96
2023/12/31 00:13:11;;;;;;;5.50;5.30;;;;;;;;;;6159726;28;20608;-96
2023/12/31 00:16:16;;;;;;;5.75;5.55;;;;;;;;;;6165991;28;20047;-96
2023/12/31 00:19:18;;;;;;;6.05;5.85;;;;;;;;;;6168669;28;20260;-96
2023/12/31 00:22:21;;;;;;;15.82;15.07;;;;;;;;;;6161958;28;20047;-96
2023/12/31 00:25:23;;;;;;;5.43;5.22;;;;;;;;;;6154214;28;20058;-96
2023/12/31 00:28:25;;;;;;;5.75;5.55;;;;;;;;;;6165497;28;20046;-96
2023/12/31 00:31:27;;;;;;;5.25;5.05;;;;;;;;;;6149126;28;20066;-96
2023/12/31 00:34:30;;;;;;;6.45;6.05;;;;;;;;;;6180228;28;20105;-96
2023/12/31 00:37:33;;;;;;;5.50;5.15;;;;;;;;;;6165023;28;20181;-96
2023/12/31 00:40:35;;;;;;;5.85;5.65;;;;;;;;;;6160621;28;20221;-96
2023/12/31 00:43:37;;;;;;;5.53;5.32;;;;;;;;;;6161332;28;20058;-96
2023/12/31 00:46:41;;;;;;;4.70;4.60;;;;;;;;;;6166073;28;20031;-96
2023/12/31 00:49:43;;;;;;;4.93;4.70;;;;;;;;;;6174586;28;20330;-96
2023/12/31 00:52:45;;;;;;;4.40;4.30;;;;;;;;;;6165135;28;20042;-96
2023/12/31 00:55:47;;;;;;;5.05;4.95;;;;;;;;;;6165166;28;20070;-96
2023/12/31 00:58:49;;;;;;;5.15;4.95;;;;;;;;;;6163431;28;20499;-96
2023/12/31 01:01:54;;;;;;;4.55;4.45;;;;;;;;;;6168110;28;20425;-96
2023/12/31 01:04:57;;;;;;;4.88;4.68;;;;;;;;;;6156235;28;20533;-96
2023/12/31 01:07:59;;;;;;;5.20;5.03;;;;;;;;;;6165061;28;20050;-96
2023/12/31 01:11:01;;;;;;;5.47;5.28;;;;;;;;;;6162629;28;20485;-96
2023/12/31 01:14:03;;;;;;;4.35;4.25;;;;;;;;;;6166480;28;20070;-96
2023/12/31 01:17:05;;;;;;;4.70;4.60;;;;;;;;;;6164686;28;20106;-96
2023/12/31 01:20:08;;;;;;;6.03;5.72;;;;;;;;;;6172400;28;20054;-96
2023/12/31 01:23:10;;;;;;;4.65;4.55;;;;;;;;;;6167747;28;20051;-96
2023/12/31 01:26:14;;;;;;;5.93;5.72;;;;;;;;;;6155872;28;20058;-96
2023/12/31 01:29:15;;;;;;;5.18;4.97;;;;;;;;;;6162911;28;20039;-96
2023/12/31 01:32:17;;;;;;;5.20;5.05;;;;;;;;;;6157096;28;20114;-96
2023/12/31 01:35:20;;;;;;;5.57;5.40;;;;;;;;;;6162936;28;20760;-96
2023/12/31 01:38:22;;;;;;;5.00;4.90;;;;;;;;;;6157578;28;20051;-96
2023/12/31 01:41:24;;;;;;;5.18;5.05;;;;;;;;;;6157120;28;20643;-96
2023/12/31 01:44:28;;;;;;;5.75;5.45;;;;;;;;;;6153496;28;20085;-96
2023/12/31 01:47:30;;;;;;;6.25;6.03;;;;;;;;;;6159294;28;20121;-96
2023/12/31 01:50:33;;;;;;;5.35;5.15;;;;;;;;;;6165948;28;20521;-96
2023/12/31 01:53:35;;;;;;;5.72;5.32;;;;;;;;;;6167309;28;20042;-96
2023/12/31 01:56:38;;;;;;;5.13;4.93;;;;;;;;;;6164121;28;20050;-96
2023/12/31 01:59:40;;;;;;;5.60;5.40;;;;;;;;;;6163804;28;20409;-96
2023/12/31 02:02:42;;;;;;;5.32;5.13;;;;;;;;;;6161327;28;20043;-96
2023/12/31 02:05:46;;;;;;;4.75;4.65;;;;;;;;;;6161846;28;20504;-96
2023/12/31 02:08:49;;;;;;;5.32;5.07;;;;;;;;;;6164702;28;20043;-96
2023/12/31 02:11:51;;;;;;;5.20;5.00;;;;;;;;;;6160659;28;20055;-96
2023/12/31 02:14:53;;;;;;;5.22;5.03;;;;;;;;;;6164597;28;20047;-96
2023/12/31 02:17:55;;;;;;;5.97;5.57;;;;;;;;;;6159705;28;20409;-96
2023/12/31 02:20:57;;;;;;;4.65;4.55;;;;;;;;;;6163300;28;20046;-96
2023/12/31 02:23:59;;;;;;;5.82;5.63;;;;;;;;;;6167930;28;20039;-96
2023/12/31 02:27:01;;;;;;;5.28;5.07;;;;;;;;;;6166318;28;20051;-96
2023/12/31 02:30:04;;;;;;;6.13;5.93;;;;;;;;;;6164460;28;20458;-96
2023/12/31 02:33:06;;;;;;;5.07;4.97;;;;;;;;;;6160998;28;20053;-96
2023/12/31 02:36:08;;;;;;;4.80;4.70;;;;;;;;;;6169054;28;20388;-96
2023/12/31 02:39:10;;;;;;;5.32;5.05;;;;;;;;;;6170924;28;20074;-96
2023/12/31 02:42:12;;;;;;;5.07;4.97;;;;;;;;;;6167373;28;20445;-96
2023/12/31 02:45:14;;;;;;;5.75;5.55;;;;;;;;;;6146546;28;20050;-96
2023/12/31 02:48:16;;;;;;;7.15;6.72;;;;;;;;;;6165103;28;20042;-96
2023/12/31 02:51:18;;;;;;;5.35;5.15;;;;;;;;;;6168308;28;20039;-96
2023/12/31 02:54:20;;;;;;;5.32;5.13;;;;;;;;;;6142760;28;20153;-96
2023/12/31 02:57:22;;;;;;;5.30;5.10;;;;;;;;;;6166191;28;20046;-96
2023/12/31 03:00:25;;;;;;;5.53;5.32;;;;;;;;;;6164902;28;20055;-96
2023/12/31 03:03:26;;;;;;;4.90;4.78;;;;;;;;;;6145747;28;20058;-96
2023/12/31 03:06:35;;;;;;;4.95;4.85;;;;;;;;;;6143111;28;20043;-96
2023/12/31 03:09:37;;;;;;;4.65;4.55;;;;;;;;;;6170513;28;20460;-96
2023/12/31 03:12:39;;;;;;;5.72;5.43;;;;;;;;;;6160332;28;20087;-96
2023/12/31 03:15:41;;;;;;;5.13;5.03;;;;;;;;;;6162756;28;20493;-96
2023/12/31 03:18:42;;;;;;;5.78;5.57;;;;;;;;;;6160893;28;20058;-96
2023/12/31 03:21:45;;;;;;;5.90;5.70;;;;;;;;;;6159641;28;20046;-96
2023/12/31 03:24:47;;;;;;;4.90;4.80;;;;;;;;;;6156139;28;20061;-96
2023/12/31 03:27:49;;;;;;;5.63;5.43;;;;;;;;;;6162901;28;20055;-96
2023/12/31 03:30:51;;;;;;;5.10;4.93;;;;;;;;;;6151070;28;20042;-96
2023/12/31 03:33:53;;;;;;;5.43;5.22;;;;;;;;;;6157135;28;20448;-96
2023/12/31 03:36:55;;;;;;;5.32;5.13;;;;;;;;;;6157472;28;20081;-96
2023/12/31 03:39:58;;;;;;;6.35;6.15;;;;;;;;;;6162900;28;20623;-96
2023/12/31 03:43:00;;;;;;;6.38;6.07;;;;;;;;;;6159238;28;20572;-96
2023/12/31 03:46:02;;;;;;;5.60;5.40;;;;;;;;;;6157805;28;20050;-96
2023/12/31 03:49:04;;;;;;;5.47;5.28;;;;;;;;;;6163238;28;20069;-96
2023/12/31 03:52:06;;;;;;;5.18;4.97;;;;;;;;;;6147913;28;20051;-96
2023/12/31 03:55:11;;;;;;;5.32;5.13;;;;;;;;;;6165840;28;20082;-96
2023/12/31 03:58:13;;;;;;;5.85;5.65;;;;;;;;;;6158303;28;20046;-96
2023/12/31 04:01:17;;;;;;;5.00;4.90;;;;;;;;;;6165481;28;20038;-96
2023/12/31 04:04:18;;;;;;;5.68;5.47;;;;;;;;;;6166368;28;20050;-96
2023/12/31 04:07:23;;;;;;;5.40;5.20;;;;;;;;;;6164730;28;20042;-96
2023/12/31 04:10:25;;;;;;;5.93;5.65;;;;;;;;;;6165936;28;20051;-96
2023/12/31 04:13:28;;;;;;;5.18;5.07;;;;;;;;;;6166502;28;20039;-96
2023/12/31 04:16:30;;;;;;;7.05;6.75;;;;;;;;;;6156674;28;20043;-96
2023/12/31 04:19:32;;;;;;;5.15;5.05;;;;;;;;;;6149224;28;20063;-96
2023/12/31 04:22:33;;;;;;;5.03;4.93;;;;;;;;;;6160265;28;20041;-96
2023/12/31 04:25:36;;;;;;;5.97;5.78;;;;;;;;;;6164331;28;20351;-95
2023/12/31 04:28:37;;;;;;;5.53;5.32;;;;;;;;;;6163891;28;20081;-96
2023/12/31 04:31:46;;;;;;;5.30;5.10;;;;;;;;;;6156287;28;20050;-96
2023/12/31 04:34:53;;;;;;;5.53;5.32;;;;;;;;;;6164168;28;20041;-96
2023/12/31 04:37:55;;;;;;;5.63;5.43;;;;;;;;;;6164449;28;20035;-96
2023/12/31 04:40:58;;;;;;;15.70;15.00;;;;;;;;;;6160975;28;20050;-96
2023/12/31 04:44:00;;;;;;;22.88;5.88;;;;;;;;;;6164436;28;20843;-96
2023/12/31 04:47:03;;;;;;;5.85;5.28;;;;;;;;;;6165697;28;20603;-96
2023/12/31 04:50:05;;;;;;;5.45;5.25;;;;;;;;;;6164275;28;20054;-96
2023/12/31 04:53:08;;;;;;;4.65;4.55;;;;;;;;;;6163134;28;20505;-96
2023/12/31 04:56:17;;;;;;;6.00;5.80;;;;;;;;;;6163600;28;20051;-96
2023/12/31 04:59:20;;;;;;;5.78;5.57;;;;;;;;;;6163782;28;20133;-96
2023/12/31 05:02:22;;;;;;;6.32;6.03;;;;;;;;;;6165185;28;20486;-96
2023/12/31 05:05:26;;;;;;;5.70;5.50;;;;;;;;;;6162808;28;20074;-96
2023/12/31 05:08:28;;;;;;;6.65;6.45;;;;;;;;;;6158303;28;20046;-96
2023/12/31 05:11:30;;;;;;;8.75;5.88;;;;;;;;;;6165599;28;20087;-96
2023/12/31 05:14:32;;;;;;;5.82;5.40;;;;;;;;;;6160503;28;20069;-96
2023/12/31 05:17:34;;;;;;;5.80;5.60;;;;;;;;;;6158817;28;20062;-96
2023/12/31 05:20:36;;;;;;;5.50;5.30;;;;;;;;;;6155670;28;20047;-96
2023/12/31 05:23:38;;;;;;;5.22;5.05;;;;;;;;;;6156162;28;20046;-96
2023/12/31 05:26:40;;;;;;;5.82;5.63;;;;;;;;;;6163796;28;20142;-95
2023/12/31 05:29:42;;;;;;;5.80;5.60;;;;;;;;;;6164415;28;20057;-96
2023/12/31 05:32:44;;;;;;;5.72;5.53;;;;;;;;;;6173251;28;20464;-96
2023/12/31 05:35:46;;;;;;;5.30;5.10;;;;;;;;;;6163135;28;20517;-95
2023/12/31 05:38:48;;;;;;;5.40;5.20;;;;;;;;;;6159080;28;20050;-96
2023/12/31 05:41:50;;;;;;;5.55;5.35;;;;;;;;;;6159693;28;20054;-96
2023/12/31 05:44:51;;;;;;;5.82;5.53;;;;;;;;;;6160047;28;20043;-96
2023/12/31 05:47:53;;;;;;;5.88;5.68;;;;;;;;;;6163052;28;20057;-96
2023/12/31 05:50:56;;;;;;;5.70;5.50;;;;;;;;;;6159613;28;20503;-96
2023/12/31 05:53:58;;;;;;;5.88;5.68;;;;;;;;;;6159598;28;20072;-96
2023/12/31 05:57:00;;;;;;;6.15;5.95;;;;;;;;;;6163557;28;20042;-95
2023/12/31 06:00:05;;;;;;;5.93;5.72;;;;;;;;;;6163607;28;20054;-96
2023/12/31 06:03:12;;;;;;;6.67;6.33;;;;;;;;;;6164000;28;20126;-96
2023/12/31 06:06:16;;;;;;;5.38;5.18;;;;;;;;;;6159659;28;20042;-96
2023/12/31 06:09:17;;;;;;;6.38;6.18;;;;;;;;;;6166474;28;20050;-96
2023/12/31 06:12:19;;;;;;;5.00;4.90;;;;;;;;;;6164310;28;20046;-96
2023/12/31 06:15:21;;;;;;;5.50;5.30;;;;;;;;;;6162392;28;20668;-96
2023/12/31 06:18:24;;;;;;;6.13;5.93;;;;;;;;;;6156119;28;20038;-96
2023/12/31 06:21:26;;;;;;;5.10;5.00;;;;;;;;;;6156058;28;20642;-96
2023/12/31 06:24:28;;;;;;;5.57;5.38;;;;;;;;;;6164310;28;20058;-96
2023/12/31 06:27:30;;;;;;;5.60;5.38;;;;;;;;;;6164759;28;20053;-96
2023/12/31 06:30:32;;;;;;;5.32;5.13;;;;;;;;;;6164284;28;20043;-96
2023/12/31 06:33:34;;;;;;;6.50;6.30;;;;;;;;;;6166756;28;20061;-96
2023/12/31 06:36:37;;;;;;;5.18;5.07;;;;;;;;;;6164380;28;20069;-96
2023/12/31 06:39:44;;;;;;;5.93;5.72;;;;;;;;;;6155240;28;20046;-96
2023/12/31 06:42:46;;;;;;;6.38;6.10;;;;;;;;;;6157645;28;20460;-96
2023/12/31 06:45:49;;;;;;;5.30;5.10;;;;;;;;;;6158542;28;20405;-96
2023/12/31 06:48:51;;;;;;;5.35;5.20;;;;;;;;;;6154017;28;20051;-96
2023/12/31 06:51:53;;;;;;;5.20;4.95;;;;;;;;;;6159927;28;20046;-96
2023/12/31 06:54:55;;;;;;;6.10;5.90;;;;;;;;;;6171358;28;20051;-96
2023/12/31 06:57:57;;;;;;;5.53;5.32;;;;;;;;;;6169047;28;20073;-96
2023/12/31 07:00:59;;;;;;;5.93;5.72;;;;;;;;;;6161199;28;20043;-96
2023/12/31 07:04:01;;;;;;;5.45;5.25;;;;;;;;;;6168579;28;20047;-96
2023/12/31 07:07:03;;;;;;;5.53;5.32;;;;;;;;;;6166493;28;20118;-96
2023/12/31 07:10:05;;;;;;;4.93;4.72;;;;;;;;;;6161248;28;20051;-96
2023/12/31 07:13:07;;;;;;;4.97;4.88;;;;;;;;;;6168898;28;20050;-96
2023/12/31 07:16:10;;;;;;;4.63;4.53;;;;;;;;;;6164159;28;20489;-96
2023/12/31 07:19:12;;;;;;;5.80;5.28;;;;;;;;;;6170415;28;20073;-96
2023/12/31 07:22:14;;;;;;;5.25;5.15;;;;;;;;;;6167152;28;20413;-96
2023/12/31 07:25:16;;;;;;;4.90;4.80;;;;;;;;;;6166858;28;20173;-96
2023/12/31 07:28:18;;;;;;;5.28;5.07;;;;;;;;;;6168467;28;20543;-96
2023/12/31 07:31:20;;;;;;;4.72;4.63;;;;;;;;;;6168009;28;20146;-96
2023/12/31 07:34:24;;;;;;;5.00;4.90;;;;;;;;;;6168734;28;20043;-96
2023/12/31 07:37:26;;;;;;;5.75;5.35;;;;;;;;;;6162959;28;20490;-96
2023/12/31 07:40:28;;;;;;;5.05;4.85;;;;;;;;;;6167621;28;20121;-96
2023/12/31 07:43:30;;;;;;;6.35;6.05;;;;;;;;;;6164940;28;20057;-96
2023/12/31 07:46:32;;;;;;;5.30;5.15;;;;;;;;;;6153592;28;20054;-96
2023/12/31 07:49:34;;;;;;;4.90;4.78;;;;;;;;;;6164878;28;20047;-96
2023/12/31 07:52:36;;;;;;;4.50;4.40;;;;;;;;;;6172224;28;20038;-96
2023/12/31 07:55:38;;;;;;;4.63;4.53;;;;;;;;;;6167156;28;20452;-96
2023/12/31 07:58:40;;;;;;;7.80;7.50;;;;;;;;;;6159234;28;20808;-96
2023/12/31 08:01:42;;;;;;;5.47;5.28;;;;;;;;;;6155354;28;20047;-96
2023/12/31 08:04:44;;;;;;;5.22;5.03;;;;;;;;;;6176442;28;20053;-96
2023/12/31 08:07:47;;;;;;;5.15;4.95;;;;;;;;;;6162966;28;20509;-96
2023/12/31 08:10:48;;;;;;;4.85;4.65;;;;;;;;;;6160935;28;20069;-96
2023/12/31 08:13:51;;;;;;;4.78;4.68;;;;;;;;;;6163610;28;20103;-96
2023/12/31 08:16:53;;;;;;;5.03;4.93;;;;;;;;;;6157697;28;20047;-96
2023/12/31 08:19:54;;;;;;;4.95;4.78;;;;;;;;;;6164582;28;20045;-96
2023/12/31 08:22:58;;;;;;;4.53;4.43;;;;;;;;;;6168649;28;20047;-96
2023/12/31 08:26:01;;;;;;;5.20;5.07;;;;;;;;;;6149818;28;20364;-96
2023/12/31 08:29:04;;;;;;;4.68;4.57;;;;;;;;;;6163813;28;20047;-96
2023/12/31 08:32:06;;;;;;;4.85;4.75;;;;;;;;;;6161980;28;20077;-96
2023/12/31 08:35:10;;;;;;;5.35;5.10;;;;;;;;;;6158131;28;20046;-96
2023/12/31 08:38:12;;;;;;;4.88;4.78;;;;;;;;;;6162098;28;20120;-96
2023/12/31 08:41:14;;;;;;;5.15;4.95;;;;;;;;;;6162973;28;20054;-96
2023/12/31 08:44:16;;;;;;;4.78;4.68;;;;;;;;;;6165248;28;20035;-96
2023/12/31 08:47:17;;;;;;;4.90;4.80;;;;;;;;;;6166031;28;20485;-96
2023/12/31 08:50:19;;;;;;;4.65;4.55;;;;;;;;;;6161521;28;20118;-96
2023/12/31 08:53:22;;;;;;;5.47;5.28;;;;;;;;;;6155800;28;20051;-96
2023/12/31 08:56:24;;;;;;;5.35;5.15;;;;;;;;;;6161483;28;20060;-96
2023/12/31 08:59:26;;;;;;;5.97;5.78;;;;;;;;;;6162849;28;20431;-96
2023/12/31 09:02:28;;;;;;;5.57;5.38;;;;;;;;;;6154116;28;20356;-96
2023/12/31 09:05:30;;;;;;;5.60;5.40;;;;;;;;;;6160525;28;20369;-96
2023/12/31 09:08:32;;;;;;;5.15;4.95;;;;;;;;;;6160959;28;20058;-96
2023/12/31 09:11:34;;;;;;;5.10;4.93;;;;;;;;;;6160304;28;20054;-96
2023/12/31 09:14:36;;;;;;;4.47;4.38;;;;;;;;;;6160262;28;20426;-96
2023/12/31 09:17:38;;;;;;;4.60;4.50;;;;;;;;;;6162791;28;20065;-96
2023/12/31 09:20:40;;;;;;;5.40;5.20;;;;;;;;;;6158738;28;20061;-96
2023/12/31 09:23:42;;;;;;;5.50;5.30;;;;;;;;;;6156911;28;20394;-96
2023/12/31 09:26:43;;;;;;;6.55;4.93;;;;;;;;;;6164831;28;20057;-96
2023/12/31 09:29:46;;;;;;;4.75;4.65;;;;;;;;;;6155475;28;20146;-96
2023/12/31 09:32:48;;;;;;;4.70;4.60;;;;;;;;;;6155469;28;20042;-96
2023/12/31 09:35:50;;;;;;;4.43;4.32;;;;;;;;;;6160167;28;20047;-96
2023/12/31 09:38:51;;;;;;;4.72;4.63;;;;;;;;;;6161656;28;20062;-96
2023/12/31 09:41:55;;;;;;;5.20;5.00;;;;;;;;;;6156694;28;20035;-96
2023/12/31 09:44:58;;;;;;;4.95;4.85;;;;;;;;;;6160340;28;20064;-95
2023/12/31 09:48:01;;;;;;;6.22;5.13;;;;;;;;;;6157938;28;21198;-96
2023/12/31 09:51:03;;;;;;;9.02;5.38;;;;;;;;;;6154278;28;20125;-96
2023/12/31 09:54:05;;;;;;;5.45;5.25;;;;;;;;;;6155101;28;20047;-96
2023/12/31 09:57:08;;;;;;;5.55;5.35;;;;;;;;;;6159900;28;20075;-96
2023/12/31 10:00:20;;;;;;;5.50;5.30;;;;;;;;;;6154109;28;20039;-96
2023/12/31 10:03:22;;;;;;;5.68;5.47;;;;;;;;;;6155273;28;20050;-96
2023/12/31 10:06:24;;;;;;;5.28;5.07;;;;;;;;;;6163438;28;20038;-96
2023/12/31 10:09:27;;;;;;;5.03;4.93;;;;;;;;;;6161239;28;20042;-94
2023/12/31 10:12:34;;;;;;;5.10;4.90;;;;;;;;;;6166006;28;20062;-94
2023/12/31 10:15:36;;;;;;;5.07;4.78;;;;;;;;;;6158141;28;20055;-93
2023/12/31 10:18:38;;;;;;;4.63;4.53;;;;;;;;;;6157937;28;20043;-95
2023/12/31 10:21:41;;;;;;;5.80;5.50;;;;;;;;;;6157508;28;20524;-94
2023/12/31 10:24:43;;;;;;;5.50;5.30;;;;;;;;;;6155966;28;20857;-93
2023/12/31 10:27:47;;;;;;;5.63;5.38;;;;;;;;;;6156981;28;20039;-94
2023/12/31 10:30:50;;;;;;;5.22;5.03;;;;;;;;;;6156399;28;20044;-94
2023/12/31 10:33:52;;;;;;;5.32;5.13;;;;;;;;;;6166435;28;20121;-94
2023/12/31 10:37:00;;;;;;;4.80;4.70;;;;;;;;;;6164255;28;20070;-94
2023/12/31 10:40:19;;;;;;;4.72;4.63;;;;;;;;;;6172563;28;20552;-94
2023/12/31 10:43:21;;;;;;;5.82;5.63;;;;;;;;;;6162546;28;20452;-94
2023/12/31 10:46:24;;;;;;;5.35;5.15;;;;;;;;;;6160364;28;20523;-94
2023/12/31 10:49:27;;;;;;;5.95;5.75;;;;;;;;;;6160535;28;20101;-95
2023/12/31 10:52:29;;;;;;;4.60;4.50;;;;;;;;;;6166616;28;20058;-94
2023/12/31 10:55:33;;;;;;;5.25;4.95;;;;;;;;;;6165638;28;20590;-94
2023/12/31 10:58:35;;;;;;;5.68;5.47;;;;;;;;;;6164037;28;20042;-94
2023/12/31 11:01:37;;;;;;;5.60;5.40;;;;;;;;;;6164106;28;20039;-95
2023/12/31 11:04:39;;;;;;;5.28;5.07;;;;;;;;;;6163137;28;20137;-94
2023/12/31 11:07:41;;;;;;;4.78;4.68;;;;;;;;;;6161744;28;20045;-95
2023/12/31 11:10:46;;;;;;;4.13;4.03;;;;;;;;;;6147579;28;20046;-95
2023/12/31 11:13:53;;;;;;;5.28;5.07;;;;;;;;;;6161089;28;20047;-94
2023/12/31 11:17:16;;;;;;;4.63;4.53;;;;;;;;;;6161898;28;20070;-95
2023/12/31 11:20:47;;;;;;;4.38;4.28;;;;;;;;;;6165353;28;20521;-95
2023/12/31 11:24:08;;;;;;;5.30;5.05;;;;;;;;;;6158928;28;20047;-96
2023/12/31 11:27:16;;;;;;;4.60;4.50;;;;;;;;;;6160861;28;20458;-95
2023/12/31 11:30:37;;;;;;;5.05;4.93;;;;;;;;;;6155590;28;20078;-94
2023/12/31 11:33:39;;;;;;;6.25;5.95;;;;;;;;;;6157272;28;20035;-95
2023/12/31 11:36:42;;;;;;;6.15;5.80;;;;;;;;;;6158101;28;20137;-96
2023/12/31 11:39:47;;;;;;;4.90;4.80;;;;;;;;;;6141758;28;20059;-96
2023/12/31 11:42:49;;;;;;;5.13;4.93;;;;;;;;;;6152133;28;20045;-95
2023/12/31 11:45:51;;;;;;;5.03;4.82;;;;;;;;;;6157734;28;20077;-96
2023/12/31 11:48:55;;;;;;;5.45;5.25;;;;;;;;;;6149575;28;20121;-95
2023/12/31 11:51:58;;;;;;;5.28;5.07;;;;;;;;;;6154119;28;20124;-95
2023/12/31 11:55:01;;;;;;;5.22;5.13;;;;;;;;;;6154401;28;20496;-96
2023/12/31 11:58:03;;;;;;;5.38;5.07;;;;;;;;;;6163439;28;20054;-96
2023/12/31 12:01:05;;;;;;;5.78;5.47;;;;;;;;;;6147056;28;20075;-96
2023/12/31 12:04:07;;;;;;;5.07;4.88;;;;;;;;;;6154631;28;20382;-95
2023/12/31 12:07:09;;;;;;;5.22;5.03;;;;;;;;;;6159348;28;20393;-96
2023/12/31 12:10:11;;;;;;;5.55;5.35;;;;;;;;;;6154535;28;20058;-96
2023/12/31 12:13:14;;;;;;;5.25;5.10;;;;;;;;;;6155456;28;20327;-95
2023/12/31 12:16:16;;;;;;;4.40;4.30;;;;;;;;;;6151266;28;20503;-95
2023/12/31 12:19:18;;;;;;;5.25;5.13;;;;;;;;;;6154443;28;20121;-95
2023/12/31 12:22:20;;;;;;;5.13;4.93;;;;;;;;;;6160638;28;20078;-96
2023/12/31 12:25:23;;;;;;;5.30;5.10;;;;;;;;;;6158695;28;20039;-95
2023/12/31 12:28:25;;;;;;;6.10;5.90;;;;;;;;;;6159646;28;20046;-96
2023/12/31 12:31:32;;;;;;;5.05;4.85;;;;;;;;;;6161610;28;20038;-95
2023/12/31 12:34:35;;;;;;;4.70;4.50;;;;;;;;;;6144627;28;20537;-96
2023/12/31 12:37:37;;;;;;;5.32;5.13;;;;;;;;;;6145735;28;20162;-96
2023/12/31 12:40:39;;;;;;;4.60;4.40;;;;;;;;;;6140511;28;20420;-96
2023/12/31 12:43:41;;;;;;;4.30;4.20;;;;;;;;;;6161545;28;20448;-96
2023/12/31 12:46:44;;;;;;;4.97;4.88;;;;;;;;;;6172392;28;20050;-96
2023/12/31 12:49:48;;;;;;;5.32;5.13;;;;;;;;;;6158868;28;20062;-96
2023/12/31 12:52:50;;;;;;;4.97;4.68;;;;;;;;;;6155101;28;20047;-96
2023/12/31 12:55:52;;;;;;;4.88;4.68;;;;;;;;;;6161529;28;20049;-96
2023/12/31 12:58:53;;;;;;;5.70;5.50;;;;;;;;;;6161825;28;20130;-96
2023/12/31 13:01:56;;;;;;;5.40;5.22;;;;;;;;;;6161146;28;20039;-96
2023/12/31 13:04:59;;;;;;;5.13;4.93;;;;;;;;;;6151588;28;20490;-96
2023/12/31 13:08:03;;;;;;;5.47;5.18;;;;;;;;;;6155780;28;20035;-96
2023/12/31 13:11:06;;;;;;;4.95;4.75;;;;;;;;;;6159110;28;20054;-96
2023/12/31 13:14:08;;;;;;;5.13;5.03;;;;;;;;;;6157314;28;20047;-96
2023/12/31 13:17:10;;;;;;;4.40;4.30;;;;;;;;;;6155041;28;20047;-96
2023/12/31 13:20:12;;;;;;;5.40;5.25;;;;;;;;;;6160364;28;20543;-96
2023/12/31 13:23:14;;;;;;;4.60;4.50;;;;;;;;;;6154224;28;20059;-95
2023/12/31 13:26:16;;;;;;;4.13;4.03;;;;;;;;;;6162406;28;20117;-96
2023/12/31 13:29:19;;;;;;;4.28;4.18;;;;;;;;;;6159987;28;20039;-96
2023/12/31 13:32:21;;;;;;;4.78;4.60;;;;;;;;;;6168730;28;20043;-96
2023/12/31 13:35:23;;;;;;;4.43;4.32;;;;;;;;;;6155501;28;20034;-95
2023/12/31 13:38:26;;;;;;;4.75;4.63;;;;;;;;;;6159556;28;20358;-96
2023/12/31 13:41:28;;;;;;;5.40;5.20;;;;;;;;;;6139019;28;20133;-96
2023/12/31 13:44:30;;;;;;;4.18;4.07;;;;;;;;;;6147778;28;20042;-95
2023/12/31 13:47:33;;;;;;;4.97;4.78;;;;;;;;;;6159136;28;20046;-96
2023/12/31 13:50:44;;;;;;;5.10;5.00;;;;;;;;;;6158904;28;20149;-95
2023/12/31 13:53:51;;;;;;;4.93;4.78;;;;;;;;;;6144854;28;20101;-96
2023/12/31 13:56:54;;;;;;;4.97;4.78;;;;;;;;;;6157031;28;20053;-96
2023/12/31 13:59:56;;;;;;;5.20;5.05;;;;;;;;;;6150702;28;20042;-96
2023/12/31 14:03:05;;;;;;;5.03;4.82;;;;;;;;;;6154220;28;20055;-96
2023/12/31 14:06:09;;;;;;;5.68;5.47;;;;;;;;;;6141377;28;20055;-96
2023/12/31 14:09:11;;;;;;;5.53;5.32;;;;;;;;;;6148384;28;20534;-95
2023/12/31 14:12:18;;;;;;;5.10;4.80;;;;;;;;;;6156680;28;20163;-96
2023/12/31 14:15:20;;;;;;;4.53;4.43;;;;;;;;;;6161980;28;20055;-95
2023/12/31 14:18:22;;;;;;;4.40;4.30;;;;;;;;;;6166667;28;20126;-95
2023/12/31 14:21:25;;;;;;;5.15;4.95;;;;;;;;;;6159910;28;20380;-95
2023/12/31 14:24:29;;;;;;;4.95;4.85;;;;;;;;;;6168338;28;20169;-96
2023/12/31 14:27:31;;;;;;;4.43;4.32;;;;;;;;;;6166918;28;20054;-95
2023/12/31 14:30:33;;;;;;;5.28;5.07;;;;;;;;;;6166757;28;20045;-95
2023/12/31 14:33:37;;;;;;;5.22;5.03;;;;;;;;;;6147928;28;20051;-96
2023/12/31 14:36:39;;;;;;;4.72;4.30;;;;;;;;;;6143970;28;20131;-95
2023/12/31 14:39:41;;;;;;;4.13;3.97;;;;;;;;;;6168803;28;20125;-95
2023/12/31 14:42:43;;;;;;;4.53;4.43;;;;;;;;;;6168863;28;20516;-95
2023/12/31 14:45:45;;;;;;;3.92;3.83;;;;;;;;;;6158927;28;20461;-95
2023/12/31 14:48:47;;;;;;;4.97;4.88;;;;;;;;;;6167686;28;20436;-96
2023/12/31 14:51:49;;;;;;;4.72;4.63;;;;;;;;;;6159750;28;20051;-94
2023/12/31 14:54:50;;;;;;;4.93;4.82;;;;;;;;;;6170964;28;20101;-95
2023/12/31 14:57:53;;;;;;;5.10;4.90;;;;;;;;;;6168840;28;20043;-95
2023/12/31 15:00:54;;;;;;;5.03;4.82;;;;;;;;;;6161541;28;20386;-94
2023/12/31 15:03:57;;;;;;;4.32;4.22;;;;;;;;;;6165377;28;20046;-95
2023/12/31 15:06:59;;;;;;;4.05;3.95;;;;;;;;;;6153761;28;20437;-94
2023/12/31 15:10:01;;;;;;;5.22;4.95;;;;;;;;;;6150606;28;20057;-95
2023/12/31 15:13:06;;;;;;;5.25;5.07;;;;;;;;;;6165277;28;20050;-95
2023/12/31 15:16:08;;;;;;;4.25;4.15;;;;;;;;;;6145246;28;20046;-95
2023/12/31 15:19:10;;;;;;;4.82;4.63;;;;;;;;;;6168209;28;20039;-95
2023/12/31 15:22:12;;;;;;;5.78;5.47;;;;;;;;;;6164895;28;20043;-94
2023/12/31 15:25:15;;;;;;;16.10;5.35;;;;;;;;;;6166358;28;20059;-95
2023/12/31 15:28:17;;;;;;;4.28;4.18;;;;;;;;;;6162043;28;20417;-95
2023/12/31 15:31:21;;;;;;;4.63;4.53;;;;;;;;;;6148775;28;20051;-96
2023/12/31 15:34:23;;;;;;;4.53;4.43;;;;;;;;;;6144888;28;20047;-96
2023/12/31 15:37:28;;;;;;;4.65;4.55;;;;;;;;;;6164911;28;20402;-95
2023/12/31 15:40:30;;;;;;;3.88;3.78;;;;;;;;;;6154386;28;20086;-95
2023/12/31 15:43:32;;;;;;;5.00;4.80;;;;;;;;;;6162298;28;20086;-95
2023/12/31 15:46:34;;;;;;;4.90;4.70;;;;;;;;;;6165566;28;20066;-95
2023/12/31 15:49:36;;;;;;;5.07;4.88;;;;;;;;;;6160865;28;20039;-94
2023/12/31 15:52:38;;;;;;;4.45;4.35;;;;;;;;;;6160615;28;20054;-95
2023/12/31 15:55:40;;;;;;;5.03;4.90;;;;;;;;;;6165060;28;20043;-95
2023/12/31 15:58:42;;;;;;;4.78;4.68;;;;;;;;;;6162757;28;20059;-94
2023/12/31 16:01:43;;;;;;;4.57;4.38;;;;;;;;;;6158826;28;20588;-95
2023/12/31 16:04:46;;;;;;;9.68;9.23;;;;;;;;;;6167125;28;20054;-94
2023/12/31 16:07:48;;;;;;;5.65;5.45;;;;;;;;;;6165839;28;20035;-94
2023/12/31 16:10:50;;;;;;;5.13;4.95;;;;;;;;;;6158205;28;20047;-92
2023/12/31 16:13:52;;;;;;;4.95;4.85;;;;;;;;;;6165914;28;20043;-90
2023/12/31 16:16:53;;;;;;;6.68;6.25;;;;;;;;;;6165799;28;20050;-89
2023/12/31 16:19:56;;;;;;;6.07;5.78;;;;;;;;;;6160874;28;20050;-89
2023/12/31 16:22:58;;;;;;;4.93;4.72;;;;;;;;;;6171920;28;20047;-91
2023/12/31 16:26:00;;;;;;;5.38;5.18;;;;;;;;;;6159609;28;20066;-93
2023/12/31 16:29:03;;;;;;;4.82;4.63;;;;;;;;;;6164412;28;20046;-95
2023/12/31 16:39:21;;;;;;;5.68;5.47;;;;;;;;;;6747300;23;20062;-96
2023/12/31 16:42:27;;;;;;;4.35;4.25;;;;;;;;;;6171133;28;20074;-94
2023/12/31 16:45:29;;;;;;;5.28;5.10;;;;;;;;;;6162261;28;20042;-96
2023/12/31 16:48:36;;;;;;;5.20;5.00;;;;;;;;;;6169552;28;20053;-96
2023/12/31 16:51:40;;;;;;;6.05;5.78;;;;;;;;;;6176762;28;20051;-96
2023/12/31 16:54:42;;;;;;;4.63;4.53;;;;;;;;;;6178823;28;20162;-96
2023/12/31 16:57:51;;;;;;;4.32;4.22;;;;;;;;;;6157778;28;20494;-96
2023/12/31 17:00:53;;;;;;;5.55;5.30;;;;;;;;;;6159870;28;20051;-96
2023/12/31 17:03:56;;;;;;;5.22;5.13;;;;;;;;;;6156973;28;20043;-96
2023/12/31 17:06:58;;;;;;;5.30;5.10;;;;;;;;;;6161592;28;20034;-94
2023/12/31 17:10:04;;;;;;;7.38;7.18;;;;;;;;;;6176946;28;20090;-94
2023/12/31 17:13:06;;;;;;;5.32;5.13;;;;;;;;;;6164570;28;20177;-94
2023/12/31 17:16:09;;;;;;;6.10;5.90;;;;;;;;;;6165163;28;20053;-94
2023/12/31 17:19:11;;;;;;;8.30;7.97;;;;;;;;;;6163911;28;20519;-94
2023/12/31 17:22:14;;;;;;;32.08;29.48;;;;;;;;;;6165515;28;20189;-94
2023/12/31 17:25:15;;;;;;;5.32;5.13;;;;;;;;;;6165838;28;20357;-94
2023/12/31 17:28:18;;;;;;;9.68;9.23;;;;;;;;;;6165491;28;20039;-94
2023/12/31 17:31:20;;;;;;;10.15;8.93;;;;;;;;;;6174422;28;20652;-94
2023/12/31 17:34:22;;;;;;;8.30;7.90;;;;;;;;;;6163901;28;20047;-94
2023/12/31 17:37:24;;;;;;;7.35;7.05;;;;;;;;;;6158161;28;20042;-93
2023/12/31 17:40:26;;;;;;;8.02;7.47;;;;;;;;;;6165112;28;20047;-93
2023/12/31 17:43:28;;;;;;;7.55;7.15;;;;;;;;;;6166303;28;20051;-94
2023/12/31 17:46:31;;;;;;;5.75;5.55;;;;;;;;;;6158509;28;20405;-94
2023/12/31 17:49:33;;;;;;;6.13;5.93;;;;;;;;;;6165596;28;20073;-93
2023/12/31 17:52:35;;;;;;;5.82;5.63;;;;;;;;;;6158400;28;20043;-94
2023/12/31 17:55:37;;;;;;;5.70;5.43;;;;;;;;;;6162811;28;20486;-94
2023/12/31 17:58:39;;;;;;;6.38;6.18;;;;;;;;;;6156152;28;20046;-94
2023/12/31 18:01:47;;;;;;;5.88;5.68;;;;;;;;;;6163384;28;20039;-94
2023/12/31 18:04:48;;;;;;;7.32;7.03;;;;;;;;;;6156223;28;20173;-94
2023/12/31 18:07:51;;;;;;;5.75;5.55;;;;;;;;;;6164748;28;20047;-94
2023/12/31 18:10:53;;;;;;;11.50;11.07;;;;;;;;;;6153988;28;20051;-95
2023/12/31 18:13:55;;;;;;;6.05;5.85;;;;;;;;;;6160323;28;20054;-94
2023/12/31 18:16:59;;;;;;;5.55;5.35;;;;;;;;;;6160798;28;20425;-94
2023/12/31 18:20:02;;;;;;;22.25;18.88;;;;;;;;;;6160406;28;20042;-94
2023/12/31 18:23:04;;;;;;;17.60;16.25;;;;;;;;;;6161510;28;20058;-94